Time;durP1;ratioP1;P1;durP2;ratioP2;P2;SDS_P1;SDS_P2;PMS_P1;PMS_P2;Temp;Humidity;BMP_temperature;BMP_pressure;BME280_temperature;BME280_humidity;BME280_pressure;Samples;Min_cycle;Max_cycle;Signal;HPM_P1;HPM_P2
2021/04/14 06:06:30;;;;;;;0.10;0.10;;;3.40;68.90;;;;;;5153827;27;20886;-74
2021/04/14 06:08:56;;;;;;;0.13;0.13;;;3.40;70.30;;;;;;5134919;28;20028;-74
2021/04/14 06:11:22;;;;;;;0.30;0.20;;;3.40;72.50;;;;;;5137777;28;20110;-75
2021/04/14 06:13:50;;;;;;;0.57;0.40;;;3.70;74.60;;;;;;5083657;28;20047;-74
2021/04/14 06:16:16;;;;;;;0.30;0.30;;;3.70;76.00;;;;;;5114896;28;20131;-73
2021/04/14 06:18:43;;;;;;;0.60;0.50;;;3.90;77.00;;;;;;5113731;28;20096;-74
2021/04/14 06:21:10;;;;;;;0.40;0.40;;;4.00;77.80;;;;;;5134143;28;20113;-73
2021/04/14 06:23:36;;;;;;;0.57;0.50;;;4.10;78.30;;;;;;5095706;28;20047;-73
2021/04/14 06:26:16;;;;;;;0.88;0.50;;;4.20;78.70;;;;;;5109859;28;20044;-73
2021/04/14 06:28:43;;;;;;;0.43;0.30;;;4.30;79.00;;;;;;5081323;28;20036;-74
2021/04/14 06:31:10;;;;;;;1.17;0.60;;;4.50;79.30;;;;;;5094928;28;20365;-74
2021/04/14 06:33:39;;;;;;;0.40;0.40;;;4.60;79.50;;;;;;5130248;28;20036;-74
2021/04/14 06:36:07;;;;;;;0.60;0.43;;;4.70;79.50;;;;;;5078745;28;20093;-73
2021/04/14 06:38:37;;;;;;;1.52;0.75;;;4.80;79.40;;;;;;5111656;28;20059;-73
2021/04/14 06:41:45;;;;;;;0.77;0.70;;;4.90;79.40;;;;;;5095023;28;20050;-73
2021/04/14 06:44:39;;;;;;;1.17;0.60;;;5.00;79.30;;;;;;5114492;28;20035;-75
2021/04/14 06:47:15;;;;;;;0.85;0.60;;;5.10;79.40;;;;;;5113104;28;20049;-75
2021/04/14 06:49:52;;;;;;;1.00;0.68;;;5.20;79.50;;;;;;5112436;28;20373;-73
2021/04/14 06:52:31;;;;;;;1.08;0.50;;;5.30;79.50;;;;;;5131022;28;20040;-76
2021/04/14 06:55:07;;;;;;;0.50;0.50;;;5.30;79.50;;;;;;5131531;28;20043;-74
2021/04/14 06:57:37;;;;;;;1.20;0.80;;;5.40;79.40;;;;;;5102202;28;20035;-74
2021/04/14 07:00:11;;;;;;;0.40;0.40;;;5.60;79.40;;;;;;5129157;28;20054;-74
2021/04/14 07:02:56;;;;;;;2.88;1.15;;;5.70;79.30;;;;;;5112828;28;20492;-73
2021/04/14 07:05:27;;;;;;;0.52;0.47;;;5.80;79.20;;;;;;5114182;28;20161;-74
2021/04/14 07:07:57;;;;;;;0.75;0.40;;;6.00;79.00;;;;;;5096516;28;20135;-74
2021/04/14 07:10:28;;;;;;;1.65;0.90;;;6.10;78.80;;;;;;5096476;28;20489;-74
2021/04/14 07:13:00;;;;;;;3.42;1.05;;;6.20;78.60;;;;;;5097583;28;20076;-75
2021/04/14 07:15:27;;;;;;;0.82;0.68;;;6.30;78.40;;;;;;5132912;28;20051;-76
2021/04/14 07:18:13;;;;;;;1.00;0.90;;;6.40;78.40;;;;;;5094813;28;20478;-76
2021/04/14 07:20:50;;;;;;;0.60;0.60;;;6.50;78.30;;;;;;5085575;28;20043;-75
2021/04/14 07:23:31;;;;;;;1.25;0.70;;;6.60;78.20;;;;;;5090970;28;20135;-76
2021/04/14 07:26:14;;;;;;;0.55;0.47;;;6.70;78.10;;;;;;5108248;28;20063;-75
2021/04/14 07:28:57;;;;;;;1.10;0.73;;;6.90;77.90;;;;;;5102073;28;20050;-75
2021/04/14 07:31:35;;;;;;;0.57;0.47;;;7.00;77.70;;;;;;5108354;28;20044;-76
2021/04/14 07:34:32;;;;;;;1.08;0.63;;;7.00;77.60;;;;;;5112183;28;20107;-76
2021/04/14 07:37:13;;;;;;;0.82;0.60;;;7.10;77.60;;;;;;5108732;28;20404;-73
2021/04/14 07:39:44;;;;;;;;;;;7.00;77.40;;;;;;5096360;28;20397;-73
2021/04/14 07:42:48;;;;;;;1.55;0.70;;;7.00;77.70;;;;;;5112864;28;19912;-73
2021/04/14 07:45:34;;;;;;;0.98;0.80;;;7.10;77.60;;;;;;5106663;28;20044;-73
2021/04/14 07:48:06;;;;;;;1.15;0.50;;;7.20;77.50;;;;;;5085499;28;20042;-73
2021/04/14 07:50:39;;;;;;;1.45;0.85;;;7.20;77.40;;;;;;5116458;28;20043;-73
2021/04/14 07:53:24;;;;;;;1.02;0.75;;;7.20;77.40;;;;;;5116738;28;20036;-74
2021/04/14 07:56:13;;;;;;;2.05;0.70;;;7.30;77.40;;;;;;5118888;28;20050;-73
2021/04/14 07:58:42;;;;;;;1.00;0.70;;;7.20;77.30;;;;;;5098479;28;20489;-73
2021/04/14 08:01:17;;;;;;;1.20;0.80;;;7.30;77.30;;;;;;5101328;28;20042;-73
2021/04/14 08:03:45;;;;;;;2.13;1.17;;;7.30;77.20;;;;;;5083264;28;20054;-73
2021/04/14 08:06:26;;;;;;;1.38;0.85;;;7.30;77.30;;;;;;5117593;28;20481;-73
2021/04/14 08:08:53;;;;;;;0.60;0.60;;;7.30;77.40;;;;;;5120048;28;20032;-73
2021/04/14 08:11:35;;;;;;;0.80;0.63;;;7.30;77.50;;;;;;5100281;28;20123;-74
2021/04/14 08:14:14;;;;;;;0.88;0.60;;;7.30;77.70;;;;;;5117345;28;20042;-77
2021/04/14 08:16:46;;;;;;;1.23;0.70;;;7.30;77.80;;;;;;5114882;28;20130;-76
2021/04/14 08:19:25;;;;;;;0.90;0.70;;;7.30;77.70;;;;;;5059862;28;20130;-76
2021/04/14 08:22:00;;;;;;;1.27;0.90;;;7.30;77.70;;;;;;5096031;28;20378;-74
2021/04/14 08:24:34;;;;;;;2.42;1.13;;;7.30;77.70;;;;;;5114461;28;20063;-74
2021/04/14 08:27:14;;;;;;;2.10;1.30;;;7.30;77.80;;;;;;5079541;28;20032;-74
2021/04/14 08:29:40;;;;;;;3.08;1.20;;;7.40;77.70;;;;;;5094695;28;20043;-74
2021/04/14 08:32:14;;;;;;;1.70;1.15;;;7.60;77.20;;;;;;5114569;28;20031;-74
2021/04/14 08:34:52;;;;;;;2.33;1.17;;;7.60;76.60;;;;;;5114441;28;20134;-74
2021/04/14 08:37:21;;;;;;;3.05;1.30;;;7.50;76.50;;;;;;5114324;28;20093;-75
2021/04/14 08:39:54;;;;;;;1.17;0.95;;;7.40;76.50;;;;;;5095811;28;20036;-74
2021/04/14 08:42:38;;;;;;;1.95;1.20;;;7.30;76.70;;;;;;5079536;28;20052;-74
2021/04/14 08:45:27;;;;;;;2.85;1.40;;;7.30;76.90;;;;;;5095778;28;20154;-76
2021/04/14 08:48:06;;;;;;;1.90;1.23;;;7.10;77.00;;;;;;5082088;28;20091;-73
2021/04/14 08:50:37;;;;;;;2.13;1.20;;;7.10;77.10;;;;;;5113933;28;20043;-74
2021/04/14 08:53:10;;;;;;;1.73;1.20;;;7.20;77.00;;;;;;5095570;28;20511;-75
2021/04/14 08:55:37;;;;;;;2.30;1.00;;;7.30;76.90;;;;;;5079780;28;20047;-74
2021/04/14 08:58:04;;;;;;;2.00;1.25;;;7.40;76.60;;;;;;5079180;28;20044;-75
2021/04/14 09:00:30;;;;;;;1.55;1.00;;;7.50;76.30;;;;;;5095248;28;20071;-74
2021/04/14 09:03:07;;;;;;;2.05;1.20;;;7.60;76.20;;;;;;5114311;28;20055;-75
2021/04/14 09:05:35;;;;;;;2.58;1.35;;;7.70;76.00;;;;;;5078449;28;20043;-74
2021/04/14 09:08:07;;;;;;;2.05;1.20;;;7.70;75.80;;;;;;5061798;28;20038;-75
2021/04/14 09:10:39;;;;;;;2.88;1.30;;;7.90;75.70;;;;;;5095146;28;20085;-74
2021/04/14 09:13:09;;;;;;;2.95;1.70;;;7.80;75.40;;;;;;5079442;28;20051;-74
2021/04/14 09:15:52;;;;;;;3.20;1.90;;;7.70;75.40;;;;;;5115613;28;20039;-76
2021/04/14 09:18:28;;;;;;;3.97;2.40;;;7.50;75.50;;;;;;5120008;28;20047;-75
2021/04/14 09:21:09;;;;;;;4.82;2.40;;;7.40;75.90;;;;;;5096285;28;20049;-76
2021/04/14 09:23:39;;;;;;;3.42;1.90;;;7.40;76.30;;;;;;5095290;28;20496;-74
2021/04/14 09:26:15;;;;;;;4.10;2.50;;;7.60;76.20;;;;;;5078476;28;20080;-76
2021/04/14 09:28:48;;;;;;;4.18;2.67;;;7.80;75.40;;;;;;5094562;28;20111;-74
2021/04/14 09:31:39;;;;;;;4.88;2.83;;;7.90;75.00;;;;;;5096576;28;20040;-76
2021/04/14 09:34:16;;;;;;;4.72;2.80;;;8.10;74.90;;;;;;5080384;28;20059;-77
2021/04/14 09:36:48;;;;;;;5.53;2.97;;;8.20;74.70;;;;;;5100503;28;20066;-75
2021/04/14 09:39:36;;;;;;;4.00;2.30;;;8.20;74.10;;;;;;5077821;28;20040;-75
2021/04/14 09:42:16;;;;;;;3.72;2.15;;;8.40;74.20;;;;;;5095105;28;20039;-75
2021/04/14 09:44:46;;;;;;;3.95;2.30;;;8.60;73.90;;;;;;5096202;28;20047;-76
2021/04/14 09:47:17;;;;;;;4.22;2.15;;;8.70;73.60;;;;;;5093389;28;20082;-76
2021/04/14 09:49:46;;;;;;;4.18;2.35;;;8.90;73.40;;;;;;5060587;28;20032;-75
2021/04/14 09:52:32;;;;;;;4.03;2.10;;;8.70;73.00;;;;;;5093356;28;20063;-76
2021/04/14 09:55:18;;;;;;;3.67;2.03;;;8.50;73.50;;;;;;5095382;28;20515;-75
2021/04/14 09:57:47;;;;;;;3.22;2.00;;;8.20;74.00;;;;;;5113288;28;20112;-76
2021/04/14 10:00:19;;;;;;;3.85;1.85;;;7.90;74.50;;;;;;5112958;28;20066;-77
2021/04/14 10:02:47;;;;;;;2.70;1.48;;;7.90;75.10;;;;;;5113555;28;20043;-77
2021/04/14 10:05:14;;;;;;;3.08;1.67;;;7.90;75.20;;;;;;5094511;28;20127;-74
2021/04/14 10:07:44;;;;;;;3.47;1.70;;;7.80;75.20;;;;;;5112538;28;20047;-74
2021/04/14 10:10:23;;;;;;;3.28;1.70;;;7.70;75.20;;;;;;5092893;28;20067;-74
2021/04/14 10:12:52;;;;;;;2.45;1.50;;;7.70;75.40;;;;;;5112206;28;20044;-74
2021/04/14 10:15:31;;;;;;;2.88;1.42;;;7.60;75.70;;;;;;5094395;28;20497;-73
2021/04/14 10:18:09;;;;;;;2.67;1.55;;;7.60;75.90;;;;;;5112925;28;20039;-73
2021/04/14 10:20:37;;;;;;;2.60;1.50;;;7.50;75.70;;;;;;5112410;28;20044;-74
2021/04/14 10:23:11;;;;;;;2.50;1.40;;;7.50;75.80;;;;;;5077167;28;20043;-73
2021/04/14 10:25:41;;;;;;;2.83;1.60;;;7.50;76.00;;;;;;5094054;28;20040;-73
2021/04/14 10:28:17;;;;;;;3.30;1.48;;;7.60;76.00;;;;;;5076606;28;20088;-74
2021/04/14 10:30:51;;;;;;;2.13;1.25;;;7.60;75.60;;;;;;5112334;28;20101;-73
2021/04/14 10:33:21;;;;;;;2.80;1.40;;;7.60;75.60;;;;;;5112234;28;20047;-74
2021/04/14 10:35:55;;;;;;;1.08;0.85;;;7.60;75.60;;;;;;5093627;28;20043;-76
2021/04/14 10:38:36;;;;;;;1.65;1.08;;;7.80;76.20;;;;;;5112239;28;20116;-75
2021/04/14 10:41:23;;;;;;;0.75;0.70;;;7.80;75.30;;;;;;5112251;28;20481;-76
2021/04/14 10:43:51;;;;;;;2.25;1.17;;;7.90;75.30;;;;;;5093913;28;20092;-75
2021/04/14 10:46:28;;;;;;;2.42;1.40;;;7.90;75.20;;;;;;5112227;28;20136;-75
2021/04/14 10:49:11;;;;;;;1.27;1.00;;;8.00;75.00;;;;;;5112514;28;20483;-75
2021/04/14 10:51:46;;;;;;;2.13;1.17;;;8.20;74.60;;;;;;5113244;28;20048;-75
2021/04/14 10:54:14;;;;;;;2.13;1.10;;;8.30;74.40;;;;;;5116249;28;20039;-75
2021/04/14 10:56:41;;;;;;;1.60;1.08;;;8.30;74.00;;;;;;5080550;28;20036;-74
2021/04/14 10:59:11;;;;;;;0.93;0.82;;;8.40;73.80;;;;;;5080254;28;20154;-74
2021/04/14 11:01:42;;;;;;;1.20;0.90;;;8.50;73.60;;;;;;5063640;28;20036;-74
2021/04/14 11:04:27;;;;;;;0.90;0.80;;;8.50;73.50;;;;;;5097833;28;20122;-73
2021/04/14 11:07:05;;;;;;;1.35;0.90;;;8.50;73.40;;;;;;5096993;28;20473;-75
2021/04/14 11:09:36;;;;;;;1.30;0.75;;;8.60;73.30;;;;;;5097663;28;20043;-75
2021/04/14 11:12:08;;;;;;;1.10;0.73;;;8.60;73.10;;;;;;5094205;28;20093;-74
2021/04/14 11:14:38;;;;;;;1.52;0.98;;;8.70;73.70;;;;;;5097411;28;20400;-75
2021/04/14 11:17:06;;;;;;;1.23;0.80;;;8.80;73.00;;;;;;5096214;28;20085;-74
2021/04/14 11:19:32;;;;;;;1.02;0.82;;;8.80;72.80;;;;;;5081283;28;20374;-74
2021/04/14 11:22:04;;;;;;;2.05;1.10;;;8.80;72.80;;;;;;5080290;28;20393;-73
2021/04/14 11:28:19;;;;;;;0.93;0.73;;;8.90;72.80;;;;;;5042361;28;20032;-78
2021/04/14 11:31:06;;;;;;;1.40;0.93;;;8.80;72.40;;;;;;4923062;29;20661;-75
2021/04/14 11:33:56;;;;;;;1.17;0.70;;;8.90;72.60;;;;;;4932797;29;20059;-77
2021/04/14 11:37:03;;;;;;;0.90;0.63;;;8.90;72.70;;;;;;4872479;29;20057;-78
2021/04/14 11:44:01;;;;;;;0.43;0.43;;;8.80;72.80;;;;;;4831332;29;20054;-81
2021/04/14 11:46:59;;;;;;;0.98;0.60;;;8.90;72.60;;;;;;4814438;29;20513;-76
2021/04/14 11:49:42;;;;;;;0.73;0.50;;;9.00;72.40;;;;;;4811697;29;20123;-79
2021/04/14 11:55:43;;;;;;;1.77;0.80;;;9.10;72.20;;;;;;4799462;29;20054;-77
2021/04/14 11:58:46;;;;;;;1.25;0.80;;;9.00;72.10;;;;;;4820621;29;20096;-81
2021/04/14 12:01:26;;;;;;;0.95;0.70;;;9.00;72.30;;;;;;4836196;29;20074;-78
2021/04/14 12:03:52;;;;;;;1.25;0.90;;;9.10;72.10;;;;;;4838674;29;20054;-77
2021/04/14 12:06:20;;;;;;;1.38;1.00;;;9.20;72.00;;;;;;4827207;29;20074;-79
2021/04/14 12:09:02;;;;;;;0.88;0.73;;;9.20;71.80;;;;;;4877951;29;20124;-77
2021/04/14 12:11:30;;;;;;;;;;;9.40;71.70;;;;;;4912596;29;20028;-78
2021/04/14 12:14:42;;;;;;;0.95;0.60;;;9.50;71.40;;;;;;4917001;29;19959;-78
2021/04/14 12:20:08;;;;;;;0.88;0.80;;;10.30;69.90;;;;;;4890832;29;20020;-76
2021/04/14 12:22:35;;;;;;;0.63;0.60;;;10.50;69.20;;;;;;4924784;29;20041;-75
2021/04/14 12:25:08;;;;;;;0.60;0.60;;;10.80;68.90;;;;;;4916746;29;20059;-80
2021/04/14 12:27:34;;;;;;;1.23;0.80;;;11.10;68.30;;;;;;4930120;29;20079;-80
2021/04/14 12:30:01;;;;;;;1.55;0.80;;;11.30;67.80;;;;;;4929500;29;20063;-77
2021/04/14 12:32:27;;;;;;;1.90;0.90;;;11.50;67.40;;;;;;4962219;28;20015;-79
2021/04/14 12:34:53;;;;;;;0.80;0.80;;;11.70;66.90;;;;;;4961993;28;20047;-77
2021/04/14 12:37:19;;;;;;;2.30;1.33;;;11.90;66.80;;;;;;4968762;28;20031;-82
2021/04/14 12:39:48;;;;;;;1.30;0.82;;;11.90;66.10;;;;;;4965993;28;20039;-80
2021/04/14 12:42:22;;;;;;;1.48;0.90;;;11.80;66.20;;;;;;4973157;28;20074;-79
2021/04/14 12:44:56;;;;;;;1.92;0.82;;;11.80;66.30;;;;;;4994414;28;20072;-77
2021/04/14 12:47:29;;;;;;;1.40;1.10;;;11.90;66.30;;;;;;5036600;28;20123;-78
2021/04/14 12:49:55;;;;;;;1.88;1.13;;;11.80;66.20;;;;;;5050861;28;20466;-77
2021/04/14 12:52:31;;;;;;;1.77;1.17;;;11.50;66.50;;;;;;5064395;28;20036;-77
2021/04/14 12:54:57;;;;;;;1.40;1.10;;;11.00;67.10;;;;;;5063829;28;20105;-77
2021/04/14 12:57:28;;;;;;;1.08;0.88;;;10.90;68.00;;;;;;5051053;28;20498;-76
2021/04/14 13:00:08;;;;;;;1.58;1.10;;;10.70;68.20;;;;;;5108778;28;20055;-76
2021/04/14 13:02:54;;;;;;;1.33;1.00;;;10.70;68.50;;;;;;5085307;28;20498;-76
2021/04/14 13:05:47;;;;;;;1.13;0.95;;;10.90;68.60;;;;;;5085430;28;20044;-76
2021/04/14 13:08:18;;;;;;;1.65;0.80;;;11.20;67.90;;;;;;5103296;28;20094;-75
2021/04/14 13:10:52;;;;;;;1.00;0.70;;;11.40;67.50;;;;;;5103305;28;20122;-76
2021/04/14 13:13:25;;;;;;;0.77;0.68;;;11.60;66.60;;;;;;5094502;28;20063;-76
2021/04/14 13:16:01;;;;;;;0.85;0.85;;;11.60;66.30;;;;;;5032713;28;20136;-76
2021/04/14 13:18:32;;;;;;;0.88;0.70;;;11.60;66.30;;;;;;5042568;28;20095;-83
2021/04/14 13:21:20;;;;;;;1.15;0.63;;;11.40;66.40;;;;;;5030465;28;20071;-78
2021/04/14 13:23:51;;;;;;;0.70;0.70;;;11.20;66.80;;;;;;5022058;28;20048;-78
2021/04/14 13:26:33;;;;;;;0.63;0.40;;;11.00;67.10;;;;;;4981512;28;20118;-77
2021/04/14 13:29:10;;;;;;;0.40;0.40;;;11.20;67.30;;;;;;4983401;28;20082;-77
2021/04/14 13:31:45;;;;;;;0.52;0.52;;;11.10;67.00;;;;;;4948577;28;20396;-78
2021/04/14 13:34:23;;;;;;;0.57;0.50;;;11.20;67.00;;;;;;4971567;28;20069;-75
2021/04/14 13:37:02;;;;;;;1.13;0.75;;;11.10;67.00;;;;;;5000101;28;20039;-78
2021/04/14 13:39:34;;;;;;;1.38;1.02;;;11.00;67.10;;;;;;4985497;28;20133;-77
2021/04/14 13:42:07;;;;;;;1.17;0.70;;;10.90;67.20;;;;;;4992108;28;20092;-79
2021/04/14 13:44:45;;;;;;;1.75;1.20;;;11.00;66.90;;;;;;4967089;28;20034;-80
2021/04/14 13:47:36;;;;;;;1.25;0.80;;;11.20;66.30;;;;;;4985671;28;20064;-77
2021/04/14 13:50:14;;;;;;;1.02;0.60;;;11.40;65.60;;;;;;5049142;28;20052;-78
2021/04/14 13:52:41;;;;;;;1.20;0.60;;;11.20;65.40;;;;;;5004441;28;20050;-76
2021/04/14 13:55:08;;;;;;;1.02;0.65;;;11.10;65.60;;;;;;5056077;28;20052;-76
2021/04/14 13:57:42;;;;;;;0.50;0.50;;;11.10;65.70;;;;;;5060993;28;20440;-76
2021/04/14 14:00:27;;;;;;;2.05;0.52;;;10.90;65.70;;;;;;5055451;28;20051;-80
2021/04/14 14:02:55;;;;;;;0.70;0.50;;;10.70;66.00;;;;;;5022437;28;20094;-77
2021/04/14 14:05:31;;;;;;;1.23;0.40;;;10.60;66.40;;;;;;5022870;28;20048;-77
2021/04/14 14:08:15;;;;;;;0.95;0.50;;;10.50;66.60;;;;;;5064713;28;20100;-76
2021/04/14 14:10:57;;;;;;;1.58;0.50;;;10.50;66.60;;;;;;5046464;28;20108;-75
2021/04/14 14:13:36;;;;;;;0.75;0.52;;;10.30;66.50;;;;;;5058404;28;20061;-74
2021/04/14 14:16:22;;;;;;;0.32;0.32;;;10.10;66.50;;;;;;5028324;28;20060;-75
2021/04/14 14:19:06;;;;;;;0.50;0.40;;;10.10;66.70;;;;;;5036196;28;20049;-76
2021/04/14 14:21:35;;;;;;;0.20;0.20;;;10.20;66.70;;;;;;5032467;28;20046;-76
2021/04/14 14:24:01;;;;;;;0.20;0.20;;;10.30;66.40;;;;;;5036479;28;20048;-76
2021/04/14 14:26:33;;;;;;;0.30;0.30;;;10.40;66.10;;;;;;5024098;28;20049;-78
2021/04/14 14:29:04;;;;;;;0.30;0.20;;;10.70;65.60;;;;;;5102512;22;20111;-78
2021/04/14 14:31:32;;;;;;;0.20;0.20;;;10.90;64.90;;;;;;5058827;28;20041;-78
2021/04/14 14:34:03;;;;;;;0.20;0.20;;;11.20;64.50;;;;;;5057197;28;20033;-78
2021/04/14 14:36:39;;;;;;;0.50;0.10;;;11.30;63.90;;;;;;5032594;28;20042;-77
2021/04/14 14:39:36;;;;;;;0.20;0.20;;;11.50;63.60;;;;;;5017369;28;20050;-78
2021/04/14 14:42:12;;;;;;;0.30;0.28;;;11.60;63.30;;;;;;5017519;28;20041;-78
2021/04/14 14:44:50;;;;;;;0.30;0.10;;;11.50;63.20;;;;;;5030644;28;20061;-77
2021/04/14 14:47:17;;;;;;;0.65;0.38;;;11.40;63.10;;;;;;5003126;28;20050;-77
2021/04/14 14:49:50;;;;;;;0.65;0.22;;;11.20;63.50;;;;;;5000894;28;20103;-76
2021/04/14 14:52:17;;;;;;;0.20;0.15;;;11.20;63.60;;;;;;4987991;28;20043;-76
2021/04/14 14:54:57;;;;;;;1.17;0.35;;;11.30;63.60;;;;;;4993562;28;20033;-79
2021/04/14 14:57:26;;;;;;;0.38;0.13;;;11.30;63.50;;;;;;4984591;28;20054;-77
2021/04/14 15:00:08;;;;;;;0.65;0.35;;;11.30;63.50;;;;;;5003986;28;20038;-78
2021/04/14 15:02:38;;;;;;;0.30;0.30;;;11.30;63.10;;;;;;5006058;28;20109;-77
2021/04/14 15:05:08;;;;;;;0.90;0.40;;;11.10;63.30;;;;;;5009719;28;20069;-79
2021/04/14 15:07:37;;;;;;;0.22;0.20;;;10.90;63.40;;;;;;5023340;28;20121;-76
2021/04/14 15:10:11;;;;;;;0.65;0.20;;;10.80;63.70;;;;;;4996276;28;20054;-77
2021/04/14 15:12:41;;;;;;;0.55;0.20;;;10.80;63.80;;;;;;5004860;28;20520;-76
2021/04/14 15:15:39;;;;;;;0.20;0.20;;;10.70;63.70;;;;;;4963724;28;20038;-76
2021/04/14 15:18:42;;;;;;;0.20;0.20;;;10.60;63.60;;;;;;4905402;29;20040;-77
2021/04/14 15:21:14;;;;;;;0.80;0.20;;;10.50;63.60;;;;;;4914927;29;20044;-76
2021/04/14 15:23:40;;;;;;;;;;;10.40;63.60;;;;;;4927021;29;20048;-80
2021/04/14 15:26:11;;;;;;;0.65;0.30;;;10.30;63.70;;;;;;4920663;29;19907;-75
2021/04/14 15:28:41;;;;;;;0.55;0.20;;;10.40;63.90;;;;;;4921655;29;20080;-81
2021/04/14 15:31:13;;;;;;;0.43;0.32;;;10.30;63.60;;;;;;4915912;29;20036;-79
2021/04/14 15:33:43;;;;;;;;;;;10.20;63.60;;;;;;4908911;29;20044;-75
2021/04/14 15:36:12;;;;;;;0.20;0.20;;;10.20;63.60;;;;;;4924702;29;19925;-77
2021/04/14 15:38:49;;;;;;;0.40;0.30;;;10.50;63.50;;;;;;4935424;29;20066;-77
2021/04/14 15:41:17;;;;;;;0.20;0.20;;;10.90;62.50;;;;;;4959484;28;20067;-78
2021/04/14 15:43:45;;;;;;;0.30;0.25;;;10.90;62.00;;;;;;4953141;28;20045;-78
2021/04/14 15:46:15;;;;;;;0.20;0.20;;;10.90;62.40;;;;;;4935239;29;20524;-76
2021/04/14 15:48:43;;;;;;;0.20;0.20;;;10.90;62.40;;;;;;4957280;28;20065;-77
2021/04/14 15:51:14;;;;;;;0.55;0.30;;;10.60;62.40;;;;;;5032804;28;20053;-79
2021/04/14 15:53:44;;;;;;;0.20;0.20;;;10.20;63.10;;;;;;5012874;28;20037;-78
2021/04/14 15:56:11;;;;;;;0.20;0.20;;;10.00;64.50;;;;;;4968207;28;20527;-78
2021/04/14 15:58:37;;;;;;;0.30;0.30;;;9.90;64.40;;;;;;4988146;28;20366;-77
2021/04/14 16:01:06;;;;;;;0.35;0.35;;;10.00;64.60;;;;;;4978510;28;20043;-78
2021/04/14 16:03:32;;;;;;;0.28;0.28;;;9.70;64.70;;;;;;4980787;28;20047;-78
2021/04/14 16:05:59;;;;;;;0.88;0.15;;;9.60;64.70;;;;;;4988882;28;20064;-78
2021/04/14 16:08:26;;;;;;;3.08;0.30;;;9.70;64.90;;;;;;5000949;28;20124;-79
2021/04/14 16:10:52;;;;;;;0.20;0.20;;;9.60;64.90;;;;;;5013923;28;20050;-78
2021/04/14 16:13:18;;;;;;;0.32;0.20;;;9.70;65.00;;;;;;4999216;28;20049;-78
2021/04/14 16:15:44;;;;;;;0.20;0.20;;;10.00;64.30;;;;;;5000249;28;20046;-78
2021/04/14 16:18:14;;;;;;;0.50;0.20;;;9.90;63.70;;;;;;4982229;28;20049;-78
2021/04/14 16:20:41;;;;;;;0.70;0.20;;;10.00;63.90;;;;;;5008861;28;20107;-78
2021/04/14 16:23:08;;;;;;;0.17;0.17;;;10.10;63.10;;;;;;5015990;28;20509;-78
2021/04/14 16:25:36;;;;;;;0.38;0.15;;;10.00;63.40;;;;;;5017972;28;20038;-78
2021/04/14 16:28:05;;;;;;;0.32;0.30;;;9.70;63.70;;;;;;5034846;28;20056;-78
2021/04/14 16:30:31;;;;;;;0.17;0.17;;;9.80;64.80;;;;;;5033643;28;20037;-78
2021/04/14 16:32:58;;;;;;;0.55;0.10;;;9.70;64.30;;;;;;5037195;28;20067;-78
2021/04/14 16:35:25;;;;;;;0.30;0.30;;;9.90;63.90;;;;;;5038631;28;20096;-78
2021/04/14 16:37:51;;;;;;;0.10;0.10;;;10.10;63.40;;;;;;5037659;28;20095;-78
2021/04/14 16:40:19;;;;;;;0.20;0.20;;;10.30;63.10;;;;;;5038771;28;20127;-78
2021/04/14 16:42:45;;;;;;;0.30;0.30;;;10.30;62.70;;;;;;5038619;28;20036;-78
2021/04/14 16:45:14;;;;;;;0.98;0.40;;;10.40;62.30;;;;;;5005311;28;20048;-79
2021/04/14 16:47:41;;;;;;;0.55;0.35;;;10.20;62.10;;;;;;5038344;28;20044;-78
2021/04/14 16:50:09;;;;;;;0.45;0.28;;;9.90;62.70;;;;;;5061495;28;20083;-78
2021/04/14 16:52:35;;;;;;;0.10;0.10;;;9.50;63.50;;;;;;5020022;28;20136;-78
2021/04/14 16:55:01;;;;;;;1.30;0.45;;;9.20;64.40;;;;;;5008084;28;20045;-78
2021/04/14 16:57:27;;;;;;;0.35;0.20;;;8.90;65.00;;;;;;5043500;28;20047;-78
2021/04/14 16:59:54;;;;;;;0.20;0.20;;;8.80;65.40;;;;;;5021765;28;20040;-78
2021/04/14 17:02:20;;;;;;;0.20;0.10;;;8.60;65.60;;;;;;5023106;28;20044;-77
2021/04/14 17:04:46;;;;;;;0.20;0.20;;;8.60;65.90;;;;;;5022611;28;20581;-78
2021/04/14 17:07:12;;;;;;;0.20;0.20;;;8.50;66.00;;;;;;5038222;28;20040;-78
2021/04/14 17:09:39;;;;;;;0.28;0.20;;;8.40;66.10;;;;;;5033915;28;20557;-77
2021/04/14 17:12:06;;;;;;;0.35;0.20;;;8.30;66.20;;;;;;5019320;28;20439;-77
2021/04/14 17:14:32;;;;;;;0.10;0.10;;;8.30;66.30;;;;;;5019991;28;20045;-77
2021/04/14 17:16:59;;;;;;;0.75;0.15;;;8.30;66.20;;;;;;5043577;28;20033;-77
2021/04/14 17:19:25;;;;;;;0.30;0.20;;;8.20;66.00;;;;;;5061984;28;20040;-78
2021/04/14 17:21:51;;;;;;;0.22;0.20;;;8.20;66.70;;;;;;5007546;28;20037;-77
2021/04/14 17:24:18;;;;;;;0.10;0.10;;;8.20;66.20;;;;;;5022614;28;20099;-79
2021/04/14 17:26:45;;;;;;;0.40;0.30;;;8.20;66.20;;;;;;5039604;28;20510;-79
2021/04/14 17:29:13;;;;;;;0.10;0.10;;;8.20;66.00;;;;;;5063341;28;20052;-78
2021/04/14 17:31:41;;;;;;;0.50;0.40;;;8.20;65.90;;;;;;5057074;28;20033;-78
2021/04/14 17:34:08;;;;;;;0.40;0.17;;;8.10;65.90;;;;;;5058989;28;20201;-78
2021/04/14 17:36:35;;;;;;;0.10;0.10;;;8.10;66.20;;;;;;5036805;28;20037;-78
2021/04/14 17:39:04;;;;;;;0.75;0.30;;;7.90;66.30;;;;;;5018783;28;20042;-78
2021/04/14 17:41:30;;;;;;;0.10;0.10;;;7.90;66.50;;;;;;5016861;28;20514;-77
2021/04/14 17:43:56;;;;;;;0.10;0.10;;;7.80;66.70;;;;;;5036313;28;20044;-78
2021/04/14 17:46:23;;;;;;;0.10;0.10;;;7.70;66.80;;;;;;5036058;28;20044;-77
2021/04/14 17:48:50;;;;;;;0.15;0.15;;;7.60;66.90;;;;;;5036011;28;20067;-78
2021/04/14 17:51:16;;;;;;;0.47;0.10;;;7.60;67.00;;;;;;5034666;28;20494;-78
2021/04/14 17:53:43;;;;;;;0.20;0.20;;;7.50;67.20;;;;;;5035926;28;20044;-78
2021/04/14 17:56:09;;;;;;;0.28;0.20;;;7.40;67.20;;;;;;5017416;28;20075;-78
2021/04/14 17:58:35;;;;;;;0.15;0.10;;;7.30;67.40;;;;;;5017619;28;20083;-78
2021/04/14 18:01:02;;;;;;;0.13;0.10;;;7.30;68.10;;;;;;5033755;28;20072;-78
2021/04/14 18:03:28;;;;;;;0.30;0.10;;;7.30;67.60;;;;;;5033424;28;20041;-77
2021/04/14 18:05:55;;;;;;;0.32;0.10;;;7.30;67.70;;;;;;5033559;28;20064;-78
2021/04/14 18:08:24;;;;;;;0.10;0.10;;;7.30;67.70;;;;;;5001053;28;20049;-78
2021/04/14 18:10:51;;;;;;;0.20;0.20;;;7.20;67.70;;;;;;5032407;28;20049;-78
2021/04/14 18:13:17;;;;;;;0.20;0.20;;;7.10;67.70;;;;;;5051510;28;20029;-77
2021/04/14 18:15:44;;;;;;;0.25;0.17;;;7.10;67.80;;;;;;5000965;28;20029;-77
2021/04/14 18:18:29;;;;;;;0.10;0.10;;;7.00;67.90;;;;;;5017126;28;20041;-77
2021/04/14 18:20:56;;;;;;;0.17;0.10;;;6.90;68.00;;;;;;5033569;28;20442;-77
2021/04/14 18:23:24;;;;;;;0.43;0.28;;;6.90;68.10;;;;;;5016559;28;20038;-78
2021/04/14 18:25:51;;;;;;;0.20;0.15;;;6.80;68.20;;;;;;5016046;28;20529;-77
2021/04/14 18:28:18;;;;;;;0.10;0.10;;;6.80;68.20;;;;;;5017213;28;20049;-78
2021/04/14 18:30:46;;;;;;;0.20;0.20;;;6.80;68.20;;;;;;5016949;28;20048;-78
2021/04/14 18:33:12;;;;;;;0.30;0.17;;;6.70;68.30;;;;;;5016803;28;20045;-77
2021/04/14 18:35:38;;;;;;;0.55;0.25;;;6.70;68.40;;;;;;5016221;28;20403;-77
2021/04/14 18:38:04;;;;;;;0.10;0.10;;;6.60;68.50;;;;;;5017049;28;20128;-77
2021/04/14 18:40:31;;;;;;;0.10;0.10;;;6.60;68.50;;;;;;5015273;28;20073;-78
2021/04/14 18:42:58;;;;;;;0.20;0.20;;;6.60;68.70;;;;;;5000767;28;20033;-78
2021/04/14 18:45:25;;;;;;;0.10;0.10;;;6.40;68.70;;;;;;5033303;28;20048;-78
2021/04/14 18:47:52;;;;;;;0.22;0.15;;;6.40;68.90;;;;;;5015684;28;20053;-78
2021/04/14 18:50:22;;;;;;;0.20;0.20;;;6.20;68.90;;;;;;5015587;28;20478;-78
2021/04/14 18:52:48;;;;;;;0.73;0.20;;;6.30;69.10;;;;;;5017506;28;20132;-77
2021/04/14 18:55:16;;;;;;;0.38;0.15;;;6.20;69.10;;;;;;5017056;28;20491;-77
2021/04/14 18:57:43;;;;;;;0.10;0.10;;;6.20;69.20;;;;;;5016716;28;20037;-77
2021/04/14 19:00:13;;;;;;;0.17;0.13;;;6.10;69.30;;;;;;5033460;28;20399;-78
2021/04/14 19:02:40;;;;;;;0.10;0.10;;;6.10;69.40;;;;;;5032072;28;20465;-77
2021/04/14 19:05:08;;;;;;;0.10;0.10;;;6.00;69.50;;;;;;5017167;28;20554;-78
2021/04/14 19:07:37;;;;;;;0.10;0.10;;;6.00;70.20;;;;;;5017059;28;20037;-77
2021/04/14 19:10:05;;;;;;;0.30;0.20;;;6.00;69.60;;;;;;5030526;28;20053;-77
2021/04/14 19:12:31;;;;;;;0.10;0.10;;;5.90;69.60;;;;;;5034406;28;20212;-77
2021/04/14 19:14:57;;;;;;;0.10;0.10;;;5.90;69.80;;;;;;5036712;28;20048;-77
2021/04/14 19:17:23;;;;;;;0.10;0.10;;;5.90;69.80;;;;;;5036589;28;20048;-78
2021/04/14 19:19:50;;;;;;;0.10;0.10;;;5.80;69.80;;;;;;5018190;28;20042;-78
2021/04/14 19:22:16;;;;;;;0.10;0.10;;;5.80;69.80;;;;;;5019504;28;20033;-78
2021/04/14 19:24:42;;;;;;;0.30;0.10;;;5.80;69.90;;;;;;5019789;28;20047;-79
2021/04/14 19:27:09;;;;;;;0.65;0.20;;;5.80;70.00;;;;;;5018922;28;20041;-77
2021/04/14 19:29:35;;;;;;;0.10;0.10;;;5.70;70.10;;;;;;5034696;28;20046;-78
2021/04/14 19:32:01;;;;;;;0.10;0.10;;;5.70;70.20;;;;;;5054331;28;20571;-77
2021/04/14 19:34:27;;;;;;;0.10;0.10;;;5.60;70.20;;;;;;5002292;28;20045;-77
2021/04/14 19:36:54;;;;;;;0.00;0.00;;;5.60;70.30;;;;;;5036528;28;20052;-78
2021/04/14 19:39:20;;;;;;;0.10;0.10;;;5.60;70.40;;;;;;5019475;28;20041;-77
2021/04/14 19:41:47;;;;;;;0.05;0.05;;;5.50;70.40;;;;;;5036201;28;20079;-77
2021/04/14 19:44:13;;;;;;;0.00;0.00;;;5.50;70.50;;;;;;5035969;28;20049;-76